createdAt,value
2018-12-05T00:00:21.588Z,6.57
2018-12-05T00:02:50.760Z,7.57
2018-12-05T00:05:19.794Z,7.70
2018-12-05T00:07:48.822Z,8.13
2018-12-05T00:10:17.923Z,7.57
2018-12-05T00:12:46.973Z,7.20
2018-12-05T00:15:16.023Z,7.77
2018-12-05T00:17:45.094Z,7.73
2018-12-05T00:20:14.067Z,7.20
2018-12-05T00:22:43.099Z,7.30
2018-12-05T00:25:12.097Z,6.73
2018-12-05T00:27:41.085Z,6.40
2018-12-05T00:30:10.119Z,7.13
2018-12-05T00:32:39.075Z,6.53
2018-12-05T00:35:08.124Z,7.07
2018-12-05T00:37:37.165Z,7.40
2018-12-05T00:40:06.157Z,6.67
2018-12-05T00:42:35.215Z,7.47
2018-12-05T00:45:04.390Z,6.87
2018-12-05T00:47:33.472Z,7.60
2018-12-05T00:50:02.529Z,6.60
2018-12-05T00:52:31.640Z,6.13
2018-12-05T00:55:00.637Z,7.07
2018-12-05T00:57:29.625Z,6.43
2018-12-05T00:59:58.617Z,6.87
2018-12-05T01:02:27.577Z,6.83
2018-12-05T01:04:57.648Z,7.13
2018-12-05T01:07:26.632Z,6.87
2018-12-05T01:09:55.632Z,7.70
2018-12-05T01:12:24.616Z,7.80
2018-12-05T01:14:53.727Z,7.47
2018-12-05T01:17:22.724Z,7.40
2018-12-05T01:19:51.740Z,8.40
2018-12-05T01:22:20.775Z,8.07
2018-12-05T01:24:49.790Z,7.47
2018-12-05T01:27:18.751Z,7.83
2018-12-05T01:29:48.849Z,8.70
2018-12-05T01:32:17.904Z,10.03
2018-12-05T01:34:46.919Z,9.10
2018-12-05T01:37:15.994Z,9.33
2018-12-05T01:39:45.011Z,7.90
2018-12-05T01:42:13.989Z,8.43
2018-12-05T01:44:43.075Z,8.77
2018-12-05T01:47:12.107Z,8.60
2018-12-05T01:49:41.184Z,8.77
2018-12-05T01:52:10.140Z,10.07
2018-12-05T01:54:39.669Z,9.63
2018-12-05T01:57:08.677Z,10.07
2018-12-05T01:59:37.735Z,9.47
2018-12-05T02:02:06.700Z,8.87
2018-12-05T02:04:35.728Z,9.40
2018-12-05T02:07:04.748Z,8.83
2018-12-05T02:09:33.817Z,9.23
2018-12-05T02:12:02.826Z,8.73
2018-12-05T02:14:31.891Z,8.10
2018-12-05T02:17:00.917Z,9.53
2018-12-05T02:19:29.956Z,8.43
2018-12-05T02:21:58.944Z,8.13
2018-12-05T02:24:27.998Z,7.33
2018-12-05T02:26:56.999Z,8.73
2018-12-05T02:29:30.243Z,7.63
2018-12-05T02:31:59.329Z,8.07
2018-12-05T02:34:28.387Z,7.80
2018-12-05T02:36:57.386Z,7.83
2018-12-05T02:39:26.479Z,7.77
2018-12-05T02:41:55.545Z,8.80
2018-12-05T02:44:24.529Z,7.17
2018-12-05T02:46:53.521Z,8.33
2018-12-05T02:49:22.827Z,8.23
2018-12-05T02:51:51.800Z,7.87
2018-12-05T02:54:20.750Z,6.90
2018-12-05T02:56:49.845Z,7.23
2018-12-05T02:59:20.287Z,7.43
2018-12-05T03:01:49.385Z,7.57
2018-12-05T03:04:18.420Z,8.00
2018-12-05T03:06:47.455Z,6.30
2018-12-05T03:09:16.520Z,7.43
2018-12-05T03:11:45.540Z,7.17
2018-12-05T03:14:14.623Z,8.50
2018-12-05T03:16:43.612Z,7.30
2018-12-05T03:19:12.735Z,7.73
2018-12-05T03:21:41.903Z,6.60
2018-12-05T03:24:10.890Z,6.77
2018-12-05T03:26:39.882Z,7.43
2018-12-05T03:29:08.893Z,5.97
2018-12-05T03:31:37.941Z,6.73
2018-12-05T03:34:06.928Z,6.63
2018-12-05T03:36:37.023Z,8.53
2018-12-05T03:39:08.140Z,7.03
2018-12-05T03:41:37.510Z,7.80
2018-12-05T03:44:06.540Z,6.47
2018-12-05T03:46:35.627Z,7.40
2018-12-05T03:49:04.833Z,7.63
2018-12-05T03:51:33.893Z,9.97
2018-12-05T03:54:02.899Z,7.60
2018-12-05T03:56:31.875Z,9.30
2018-12-05T03:59:00.885Z,8.60
2018-12-05T04:01:32.791Z,9.83
2018-12-05T04:04:01.867Z,8.90
2018-12-05T04:06:30.861Z,9.77
2018-12-05T04:08:59.901Z,8.20
2018-12-05T04:11:28.955Z,9.60
2018-12-05T04:13:57.919Z,8.80
2018-12-05T04:16:26.931Z,9.37
2018-12-05T04:18:55.969Z,9.00
2018-12-05T04:21:25.006Z,10.50
2018-12-05T04:23:53.995Z,8.97
2018-12-05T04:26:23.053Z,9.17
2018-12-05T04:28:52.491Z,9.47
2018-12-05T04:31:21.735Z,9.27
2018-12-05T04:33:52.859Z,10.53
2018-12-05T04:36:21.906Z,10.77
2018-12-05T04:38:50.954Z,9.73
2018-12-05T04:41:20.013Z,9.97
2018-12-05T04:43:49.111Z,8.87
2018-12-05T04:46:18.147Z,8.43
2018-12-05T04:48:47.285Z,8.00
2018-12-05T04:51:16.367Z,8.83
2018-12-05T04:53:45.413Z,9.50
2018-12-05T04:56:14.572Z,10.70
2018-12-05T04:58:43.632Z,10.10
2018-12-05T05:01:12.875Z,8.20
2018-12-05T05:03:41.876Z,10.17
2018-12-05T05:06:10.870Z,10.33
2018-12-05T05:08:39.988Z,8.90
2018-12-05T05:11:09.149Z,8.20
2018-12-05T05:13:38.307Z,7.40
2018-12-05T05:16:07.281Z,7.90
2018-12-05T05:18:36.389Z,7.27
2018-12-05T05:21:05.388Z,7.97
2018-12-05T05:23:34.485Z,6.73
2018-12-05T05:26:03.586Z,6.97
2018-12-05T05:28:32.628Z,6.43
2018-12-05T05:31:01.716Z,6.97
2018-12-05T05:33:30.695Z,6.13
2018-12-05T05:36:01.681Z,6.53
2018-12-05T05:38:30.701Z,6.43
2018-12-05T05:40:59.841Z,5.83
2018-12-05T05:43:28.934Z,5.33
2018-12-05T05:45:57.951Z,6.17
2018-12-05T05:48:26.961Z,5.70
2018-12-05T05:50:55.927Z,5.43
2018-12-05T05:53:24.951Z,5.57
2018-12-05T05:55:53.953Z,6.07
2018-12-05T05:58:22.976Z,6.53
2018-12-05T06:00:51.983Z,7.33
2018-12-05T06:03:21.045Z,7.77
2018-12-05T06:05:50.097Z,7.37
2018-12-05T06:08:19.193Z,8.80
2018-12-05T06:10:48.230Z,6.43
2018-12-05T06:13:17.278Z,6.27
2018-12-05T06:15:46.311Z,6.50
2018-12-05T06:18:15.265Z,6.03
2018-12-05T06:20:44.771Z,7.33
2018-12-05T06:23:13.804Z,6.50
2018-12-05T06:25:42.816Z,7.67
2018-12-05T06:28:11.914Z,6.40
2018-12-05T06:30:41.083Z,5.07
2018-12-05T06:33:10.095Z,6.40
2018-12-05T06:35:39.075Z,7.13
2018-12-05T06:38:08.045Z,6.83
2018-12-05T06:40:37.059Z,7.13
2018-12-05T06:43:06.079Z,5.73
2018-12-05T06:45:35.073Z,6.90
2018-12-05T06:48:04.037Z,6.33
2018-12-05T06:50:33.059Z,6.83
2018-12-05T06:53:02.139Z,7.80
2018-12-05T06:55:38.938Z,7.00
2018-12-05T06:58:02.726Z,7.50
2018-12-05T07:00:31.789Z,6.57
2018-12-05T07:03:00.814Z,6.37
2018-12-05T07:05:29.826Z,6.63
2018-12-05T07:07:58.901Z,7.23
2018-12-05T07:10:27.942Z,5.97
2018-12-05T07:12:56.987Z,5.23
2018-12-05T07:15:26.180Z,5.40
2018-12-05T07:17:55.188Z,5.80
2018-12-05T07:20:24.864Z,6.20
2018-12-05T07:22:54.651Z,5.37
2018-12-05T07:25:23.658Z,5.97
2018-12-05T07:27:52.723Z,4.43
2018-12-05T07:30:21.876Z,5.03
2018-12-05T07:32:51.339Z,6.27
2018-12-05T07:35:20.398Z,6.43
2018-12-05T07:37:49.408Z,6.60
2018-12-05T07:40:18.470Z,6.13
2018-12-05T07:42:47.676Z,8.53
2018-12-05T07:45:16.692Z,5.97
2018-12-05T07:47:45.907Z,5.93
2018-12-05T07:50:15.923Z,6.07
2018-12-05T07:52:45.222Z,6.10
2018-12-05T07:55:14.353Z,5.10
2018-12-05T07:57:43.465Z,5.33
2018-12-05T08:00:12.547Z,5.67
2018-12-05T08:02:41.643Z,5.67
2018-12-05T08:05:10.658Z,4.87
2018-12-05T08:07:39.675Z,4.50
2018-12-05T08:10:08.757Z,6.37
2018-12-05T08:12:37.845Z,5.27
2018-12-05T08:15:08.293Z,4.97
2018-12-05T08:17:37.362Z,5.60
2018-12-05T08:20:06.351Z,5.20
2018-12-05T08:22:36.048Z,5.50
2018-12-05T08:25:05.510Z,4.93
2018-12-05T08:27:34.736Z,5.37
2018-12-05T08:30:03.995Z,5.03
2018-12-05T08:32:33.101Z,6.10
2018-12-05T08:35:02.197Z,5.10
2018-12-05T08:37:31.243Z,4.67
2018-12-05T08:40:00.342Z,6.67
2018-12-05T08:42:29.852Z,4.87
2018-12-05T08:44:58.870Z,4.17
2018-12-05T08:47:33.666Z,6.20
2018-12-05T08:49:59.455Z,4.47
2018-12-05T08:52:29.406Z,5.27
2018-12-05T08:54:58.528Z,5.50
2018-12-05T08:57:27.620Z,4.60
2018-12-05T08:59:56.642Z,4.93
2018-12-05T09:02:25.680Z,5.47
2018-12-05T09:04:54.725Z,6.07
2018-12-05T09:07:24.883Z,5.53
2018-12-05T09:09:53.911Z,5.50
2018-12-05T09:12:22.931Z,5.93
2018-12-05T09:14:52.249Z,4.93
2018-12-05T09:17:21.282Z,5.57
2018-12-05T09:19:50.395Z,6.03
2018-12-05T09:22:19.444Z,5.13
2018-12-05T09:24:48.590Z,4.97
2018-12-05T09:27:18.052Z,4.70
2018-12-05T09:29:47.739Z,5.20
2018-12-05T09:32:16.725Z,5.90
2018-12-05T09:34:45.815Z,4.67
2018-12-05T09:37:14.922Z,4.57
2018-12-05T09:39:43.967Z,4.77
2018-12-05T09:42:12.962Z,5.17
2018-12-05T09:44:42.002Z,3.97
2018-12-05T09:47:15.859Z,3.87
2018-12-05T09:49:42.489Z,4.53
2018-12-05T09:52:11.733Z,4.43
2018-12-05T09:54:41.838Z,5.07
2018-12-05T09:57:10.847Z,6.00
2018-12-05T09:59:39.853Z,5.57
2018-12-05T10:02:08.949Z,4.47
2018-12-05T10:04:38.087Z,5.93
2018-12-05T10:07:07.121Z,4.93
2018-12-05T10:09:36.162Z,5.43
2018-12-05T10:12:05.284Z,6.13
2018-12-05T10:14:34.920Z,5.27
2018-12-05T10:17:03.924Z,5.40
2018-12-05T10:19:32.916Z,5.47
2018-12-05T10:22:01.863Z,6.30
2018-12-05T10:24:31.026Z,5.57
2018-12-05T10:27:01.330Z,6.33
2018-12-05T10:29:30.557Z,5.57
2018-12-05T10:31:59.631Z,6.50
2018-12-05T10:34:28.733Z,4.80
2018-12-05T10:36:57.744Z,4.27
2018-12-05T10:39:27.064Z,5.97
2018-12-05T10:41:56.278Z,6.13
2018-12-05T10:44:25.322Z,5.10
2018-12-05T10:46:54.540Z,5.20
2018-12-05T10:49:23.643Z,5.27
2018-12-05T10:51:52.727Z,5.10
2018-12-05T10:54:21.743Z,5.30
2018-12-05T10:56:50.778Z,5.23
2018-12-05T10:59:19.801Z,6.00
2018-12-05T11:01:54.226Z,5.63
2018-12-05T11:04:28.713Z,5.17
2018-12-05T11:07:02.956Z,5.07
2018-12-05T11:09:37.309Z,5.17
2018-12-05T11:12:11.579Z,5.10
2018-12-05T11:14:47.134Z,5.27
2018-12-05T11:17:21.613Z,5.60
2018-12-05T11:19:57.785Z,5.53
2018-12-05T11:22:32.311Z,6.33
2018-12-05T11:25:06.533Z,4.90
2018-12-05T11:27:35.665Z,6.37
2018-12-05T11:30:05.160Z,6.00
2018-12-05T11:32:34.308Z,6.70
2018-12-05T11:35:03.365Z,6.03
2018-12-05T11:37:32.407Z,6.00
2018-12-05T11:40:01.461Z,6.47
2018-12-05T11:42:30.545Z,5.53
2018-12-05T11:44:59.594Z,6.50
2018-12-05T11:47:29.711Z,4.80
2018-12-05T11:49:58.793Z,6.30
2018-12-05T11:52:29.347Z,4.97
2018-12-05T11:54:59.096Z,6.33
2018-12-05T11:57:28.084Z,6.20
2018-12-05T11:59:57.101Z,6.40
2018-12-05T12:02:30.342Z,6.20
2018-12-05T12:05:01.743Z,6.80
2018-12-05T12:07:30.755Z,6.63
2018-12-05T12:09:59.776Z,7.20
2018-12-05T12:13:32.306Z,6.77
2018-12-05T12:16:01.292Z,6.43
2018-12-05T12:18:30.305Z,5.80
2018-12-05T12:20:59.278Z,6.07
2018-12-05T12:23:28.304Z,5.80
2018-12-05T12:25:57.311Z,6.00
2018-12-05T12:28:26.351Z,6.50
2018-12-05T12:30:55.404Z,7.17
2018-12-05T12:33:24.382Z,6.43
2018-12-05T12:35:54.153Z,6.43
2018-12-05T12:38:23.571Z,6.73
2018-12-05T12:40:52.627Z,5.90
2018-12-05T12:43:21.618Z,6.10
2018-12-05T12:45:50.602Z,7.40
2018-12-05T12:48:19.628Z,6.13
2018-12-05T12:50:48.614Z,5.70
2018-12-05T12:53:17.663Z,5.40
2018-12-05T12:55:46.730Z,5.87
2018-12-05T12:58:15.761Z,5.43
2018-12-05T13:00:45.891Z,5.50
2018-12-05T13:03:14.885Z,5.50
2018-12-05T13:05:43.898Z,6.30
2018-12-05T13:08:12.938Z,5.73
2018-12-05T13:10:41.992Z,5.50
2018-12-05T13:13:11.925Z,5.90
2018-12-05T13:15:41.929Z,6.00
2018-12-05T13:18:12.080Z,5.77
2018-12-05T13:20:41.092Z,4.37
2018-12-05T13:23:10.546Z,6.10
2018-12-05T13:25:39.598Z,5.30
2018-12-05T13:28:08.636Z,6.43
2018-12-05T13:30:37.693Z,8.23
2018-12-05T13:33:06.775Z,6.83
2018-12-05T13:35:35.835Z,7.00
2018-12-05T13:38:05.409Z,6.17
2018-12-05T13:40:34.364Z,4.97
2018-12-05T13:43:03.390Z,6.20
2018-12-05T13:45:32.486Z,5.93
2018-12-05T13:48:01.638Z,6.80
2018-12-05T13:50:30.719Z,5.67
2018-12-05T13:52:59.739Z,6.33
2018-12-05T13:55:28.682Z,6.43
2018-12-05T13:57:57.669Z,5.40
2018-12-05T14:00:26.741Z,5.90
2018-12-05T14:02:56.473Z,5.33
2018-12-05T14:05:25.601Z,5.20
2018-12-05T14:07:54.653Z,5.37
2018-12-05T14:10:23.791Z,5.70
2018-12-05T14:12:54.775Z,5.17
2018-12-05T14:15:24.181Z,5.87
2018-12-05T14:17:53.283Z,5.40
2018-12-05T14:20:22.271Z,5.53
2018-12-05T14:22:51.421Z,5.97
2018-12-05T14:25:20.531Z,4.93
2018-12-05T14:27:49.527Z,5.13
2018-12-05T14:30:18.538Z,4.70
2018-12-05T14:32:47.627Z,5.27
2018-12-05T14:35:16.615Z,4.77
2018-12-05T14:37:45.681Z,3.30
2018-12-05T14:40:14.644Z,5.07
2018-12-05T14:42:43.650Z,4.47
2018-12-05T14:45:12.723Z,5.13
2018-12-05T14:47:41.743Z,4.73
2018-12-05T14:50:10.726Z,4.47
2018-12-05T14:52:39.824Z,4.73
2018-12-05T14:55:09.775Z,5.37
2018-12-05T14:57:38.959Z,4.37
2018-12-05T15:00:08.322Z,4.97
2018-12-05T15:02:37.381Z,5.80
2018-12-05T15:05:06.452Z,5.30
2018-12-05T15:07:35.470Z,5.27
2018-12-05T15:10:04.964Z,4.87
2018-12-05T15:12:33.913Z,5.63
2018-12-05T15:15:02.972Z,5.27
2018-12-05T15:17:32.013Z,5.30
2018-12-05T15:20:01.046Z,6.20
2018-12-05T15:22:30.173Z,5.73
2018-12-05T15:24:59.197Z,5.50
2018-12-05T15:27:28.255Z,6.07
2018-12-05T15:29:57.370Z,6.77
2018-12-05T15:32:26.463Z,6.47
2018-12-05T15:34:55.917Z,6.20
2018-12-05T15:37:25.001Z,7.30
2018-12-05T15:39:54.527Z,8.23
2018-12-05T15:42:23.684Z,8.43
2018-12-05T15:44:52.819Z,7.63
2018-12-05T15:47:21.878Z,7.73
2018-12-05T15:49:50.853Z,6.53
2018-12-05T15:52:19.892Z,6.57
2018-12-05T15:54:48.895Z,6.60
2018-12-05T15:57:17.865Z,6.30
2018-12-05T15:59:46.812Z,7.73
2018-12-05T16:02:16.600Z,6.43
2018-12-05T16:04:45.711Z,7.33
2018-12-05T16:07:14.671Z,8.37
2018-12-05T16:09:44.825Z,6.70
2018-12-05T16:12:13.826Z,7.00
2018-12-05T16:14:42.819Z,5.50
2018-12-05T16:17:11.861Z,7.23
2018-12-05T16:19:40.915Z,6.33
2018-12-05T16:22:11.248Z,5.67
2018-12-05T16:24:40.218Z,7.60
2018-12-05T16:27:09.215Z,6.30
2018-12-05T16:29:38.253Z,8.30
2018-12-05T16:32:09.509Z,8.53
2018-12-05T16:34:38.515Z,6.10
2018-12-05T16:37:07.474Z,8.47
2018-12-05T16:39:36.672Z,7.57
2018-12-05T16:42:05.700Z,7.80
2018-12-05T16:44:34.673Z,8.53
2018-12-05T16:47:03.735Z,8.63
2018-12-05T16:49:32.747Z,9.07
2018-12-05T16:52:01.767Z,9.60
2018-12-05T16:54:31.126Z,8.57
2018-12-05T16:57:00.264Z,9.17
2018-12-05T16:59:29.292Z,9.00
2018-12-05T17:01:58.284Z,8.77
2018-12-05T17:04:27.263Z,8.60
2018-12-05T17:06:56.279Z,7.73
2018-12-05T17:09:26.230Z,6.97
2018-12-05T17:11:55.814Z,7.80
2018-12-05T17:14:24.819Z,9.37
2018-12-05T17:16:53.918Z,8.07
2018-12-05T17:19:22.924Z,8.27
2018-12-05T17:21:51.921Z,8.47
2018-12-05T17:24:20.851Z,8.20
2018-12-05T17:26:49.838Z,8.70
2018-12-05T17:29:18.873Z,8.90
2018-12-05T17:31:47.962Z,9.37
2018-12-05T17:34:16.995Z,8.53
2018-12-05T17:36:46.069Z,7.93
2018-12-05T17:39:15.122Z,7.53
2018-12-05T17:41:44.236Z,7.30
2018-12-05T17:44:13.237Z,6.87
2018-12-05T17:46:43.165Z,8.87
2018-12-05T17:49:12.204Z,6.63
2018-12-05T17:51:41.179Z,7.63
2018-12-05T17:54:14.752Z,7.40
2018-12-05T17:56:41.167Z,8.50
2018-12-05T17:59:10.997Z,7.03
2018-12-05T18:01:40.103Z,6.23
2018-12-05T18:04:09.071Z,7.83
2018-12-05T18:06:38.041Z,7.53
2018-12-05T18:09:08.827Z,6.80
2018-12-05T18:11:37.959Z,8.00
2018-12-05T18:14:07.030Z,7.03
2018-12-05T18:16:36.089Z,6.47
2018-12-05T18:19:05.130Z,5.87
2018-12-05T18:21:34.223Z,6.33
2018-12-05T18:24:03.309Z,5.77
2018-12-05T18:26:32.422Z,4.80
2018-12-05T18:29:01.415Z,6.03
2018-12-05T18:31:30.815Z,6.83
2018-12-05T18:33:59.915Z,5.53
2018-12-05T18:36:29.028Z,4.97
2018-12-05T18:38:59.603Z,5.43
2018-12-05T18:41:28.720Z,5.50
2018-12-05T18:43:57.917Z,5.27
2018-12-05T18:46:26.913Z,5.87
2018-12-05T18:48:55.997Z,4.33
2018-12-05T18:51:25.673Z,6.13
2018-12-05T18:53:54.808Z,4.70
2018-12-05T18:56:24.521Z,5.20
2018-12-05T18:58:53.586Z,4.07
2018-12-05T19:01:22.675Z,4.70
2018-12-05T19:03:51.691Z,4.37
2018-12-05T19:06:41.091Z,4.03
2018-12-05T19:09:10.204Z,3.87
2018-12-05T19:11:40.390Z,5.03
2018-12-05T19:14:14.881Z,4.97
2018-12-05T19:16:43.935Z,4.03
2018-12-05T19:19:12.924Z,4.43
2018-12-05T19:21:42.594Z,6.07
2018-12-05T19:24:12.974Z,4.43
2018-12-05T19:26:41.948Z,4.30
2018-12-05T19:29:10.935Z,5.17
2018-12-05T19:31:39.957Z,4.37
2018-12-05T19:34:09.049Z,4.70
2018-12-05T19:36:38.087Z,5.57
2018-12-05T19:39:07.956Z,4.77
2018-12-05T19:41:36.983Z,4.60
2018-12-05T19:44:05.990Z,4.53
2018-12-05T19:46:35.024Z,5.33
2018-12-05T19:49:04.075Z,5.37
2018-12-05T19:51:33.101Z,5.77
2018-12-05T19:54:02.130Z,4.87
2018-12-05T19:56:31.206Z,5.20
2018-12-05T19:59:00.186Z,5.43
2018-12-05T20:01:29.594Z,5.83
2018-12-05T20:03:58.561Z,6.33
2018-12-05T20:06:28.075Z,6.73
2018-12-05T20:08:58.138Z,5.60
2018-12-05T20:11:27.173Z,5.87
2018-12-05T20:13:56.233Z,7.43
2018-12-05T20:16:25.215Z,6.60
2018-12-05T20:18:54.339Z,5.40
2018-12-05T20:21:23.397Z,6.80
2018-12-05T20:23:52.377Z,6.10
2018-12-05T20:26:21.353Z,6.23
2018-12-05T20:28:50.516Z,6.10
2018-12-05T20:31:19.569Z,6.17
2018-12-05T20:33:48.636Z,6.30
2018-12-05T20:36:18.651Z,6.50
2018-12-05T20:38:47.791Z,6.83
2018-12-05T20:41:16.881Z,6.37
2018-12-05T20:43:45.913Z,5.40
2018-12-05T20:46:14.896Z,4.90
2018-12-05T20:48:43.931Z,6.50
2018-12-05T20:51:12.979Z,6.33
2018-12-05T20:53:42.075Z,5.93
2018-12-05T20:56:11.062Z,4.50
2018-12-05T20:58:40.149Z,5.43
2018-12-05T21:01:09.138Z,5.10
2018-12-05T21:03:38.243Z,4.47
2018-12-05T21:06:07.290Z,4.07
2018-12-05T21:08:36.303Z,5.30
2018-12-05T21:11:05.424Z,5.00
2018-12-05T21:13:34.580Z,5.43
2018-12-05T21:16:03.511Z,4.23
2018-12-05T21:18:32.545Z,4.77
2018-12-05T21:21:02.138Z,3.93
2018-12-05T21:23:31.177Z,4.83
2018-12-05T21:26:00.223Z,4.87
2018-12-05T21:28:29.322Z,3.23
2018-12-05T21:30:58.350Z,3.67
2018-12-05T21:33:27.349Z,4.17
2018-12-05T21:35:56.356Z,4.30
2018-12-05T21:38:26.081Z,4.70
2018-12-05T21:40:55.097Z,4.20
2018-12-05T21:43:24.041Z,3.60
2018-12-05T21:45:52.985Z,4.00
2018-12-05T21:48:22.392Z,3.83
2018-12-05T21:50:51.624Z,3.73
2018-12-05T21:53:20.604Z,4.10
2018-12-05T21:55:49.623Z,2.67
2018-12-05T21:58:18.678Z,4.70
2018-12-05T22:00:47.796Z,4.17
2018-12-05T22:03:16.851Z,3.03
2018-12-05T22:05:45.883Z,3.60
2018-12-05T22:08:14.888Z,3.77
2018-12-05T22:10:43.925Z,3.40
2018-12-05T22:13:12.984Z,3.13
2018-12-05T22:15:42.026Z,3.17
2018-12-05T22:18:11.053Z,4.03
2018-12-05T22:20:40.126Z,2.57
2018-12-05T22:23:09.108Z,4.23
2018-12-05T22:25:38.160Z,4.20
2018-12-05T22:28:07.197Z,3.40
2018-12-05T22:30:36.801Z,4.20
2018-12-05T22:33:05.938Z,4.00
2018-12-05T22:35:34.952Z,3.33
2018-12-05T22:38:04.137Z,3.40
2018-12-05T22:40:33.205Z,4.27
2018-12-05T22:43:02.218Z,4.07
2018-12-05T22:45:31.347Z,3.30
2018-12-05T22:48:00.424Z,3.80
2018-12-05T22:50:29.524Z,3.67
2018-12-05T22:52:58.520Z,4.20
2018-12-05T22:55:27.537Z,3.67
2018-12-05T22:57:56.606Z,3.27
2018-12-05T23:00:26.727Z,3.33
2018-12-05T23:02:57.803Z,3.63
2018-12-05T23:05:26.825Z,3.87
2018-12-05T23:07:55.815Z,3.60
2018-12-05T23:10:24.947Z,4.17
2018-12-05T23:12:53.970Z,4.17
2018-12-05T23:15:23.137Z,4.23
2018-12-05T23:17:52.241Z,3.30
2018-12-05T23:20:21.261Z,2.93
2018-12-05T23:22:50.281Z,3.97
2018-12-05T23:25:19.364Z,3.60
2018-12-05T23:27:48.461Z,4.20
2018-12-05T23:30:17.465Z,4.10
2018-12-05T23:32:46.505Z,4.00
2018-12-05T23:35:15.610Z,2.77
2018-12-05T23:37:44.731Z,4.27
2018-12-05T23:40:14.886Z,3.40
2018-12-05T23:42:44.562Z,3.80
2018-12-05T23:45:13.803Z,3.47
2018-12-05T23:47:42.777Z,4.13
2018-12-05T23:50:11.839Z,3.33
2018-12-05T23:52:40.775Z,4.00
2018-12-05T23:55:09.914Z,3.83
2018-12-05T23:57:38.993Z,3.27
